Aflex, Kentucky
Current Conditions -  °F | °C
As of 11:35 PM on Sunday 25 Jan 2015 (Local Time) from KPBX Reporting Station
Drizzle Drizzle  
Wind Chill: 39°   Ceiling: 4700
Heat Index: 42°   Visibility: 10mi
Dew Point: 37°   Wind: 6mph
Humidity: 80%   Direction: 140°SE
Pressure: 29.65"   Gusts: NA
Location:  37.632°N, 82.2603°W
Report Text: KPBX 260435Z AUTO 14005KT 10SM -DZ OVC047 06/03 A2965 RMK AO2 T00570025
Loading
Personal Weather Stations






























Interactive Weather Map New forecast layout! Learn more

10-Day Weather Forecast

Advertisements
Track Severe Weather on mobile